createdAt,value
2018-07-08T00:01:25.969Z,44.50
2018-07-08T00:06:16.856Z,44.50
2018-07-08T00:11:07.754Z,44.50
2018-07-08T00:15:59.379Z,44.40
2018-07-08T00:20:51.025Z,44.50
2018-07-08T00:25:42.673Z,44.60
2018-07-08T00:30:33.560Z,44.50
2018-07-08T00:35:24.468Z,44.50
2018-07-08T00:40:15.368Z,45.20
2018-07-08T00:45:06.260Z,44.70
2018-07-08T00:49:57.162Z,44.70
2018-07-08T00:54:48.057Z,44.70
2018-07-08T00:59:39.687Z,44.90
2018-07-08T01:04:30.580Z,44.90
2018-07-08T01:09:21.485Z,45.20
2018-07-08T01:14:12.375Z,45.20
2018-07-08T01:19:03.279Z,45.30
2018-07-08T01:23:54.916Z,45.40
2018-07-08T01:28:46.557Z,45.60
2018-07-08T01:33:37.469Z,45.50
2018-07-08T01:38:28.358Z,45.50
2018-07-08T01:43:19.242Z,45.60
2018-07-08T01:48:10.137Z,45.40
2018-07-08T01:53:01.040Z,45.50
2018-07-08T01:57:52.674Z,45.70
2018-07-08T02:02:44.318Z,45.60
2018-07-08T02:07:35.203Z,45.60
2018-07-08T02:12:26.110Z,45.70
2018-07-08T02:17:16.996Z,45.70
2018-07-08T02:22:07.891Z,45.80
2018-07-08T02:26:58.780Z,46.00
2018-07-08T02:31:50.428Z,46.20
2018-07-08T02:36:42.047Z,46.20
2018-07-08T02:41:32.924Z,46.20
2018-07-08T02:46:23.816Z,46.40
2018-07-08T02:51:15.457Z,46.90
2018-07-08T02:56:06.384Z,46.90
2018-07-08T03:00:57.271Z,47.60
2018-07-08T03:05:48.951Z,47.80
2018-07-08T03:10:39.888Z,47.70
2018-07-08T03:15:30.806Z,48.10
2018-07-08T03:20:21.714Z,48.00
2018-07-08T03:25:12.638Z,48.10
2018-07-08T03:30:03.537Z,48.70
2018-07-08T03:34:54.448Z,48.30
2018-07-08T03:39:45.348Z,49.00
2018-07-08T03:44:36.999Z,48.60
2018-07-08T03:49:27.916Z,48.60
2018-07-08T03:54:18.817Z,48.60
2018-07-08T03:59:10.468Z,49.60
2018-07-08T04:04:01.408Z,49.60
2018-07-08T04:08:52.315Z,50.10
2018-07-08T04:13:43.228Z,49.60
2018-07-08T04:18:34.129Z,50.40
2018-07-08T04:23:25.773Z,50.60
2018-07-08T04:28:16.695Z,50.50
2018-07-08T04:33:07.597Z,50.30
2018-07-08T04:37:59.226Z,50.00
2018-07-08T04:42:50.861Z,50.10
2018-07-08T04:47:42.504Z,50.00
2018-07-08T04:52:34.130Z,50.10
2018-07-08T04:57:25.773Z,50.20
2018-07-08T05:02:17.414Z,50.30
2018-07-08T05:07:09.068Z,50.80
2018-07-08T05:11:59.969Z,50.80
2018-07-08T05:16:51.595Z,51.20
2018-07-08T05:21:43.234Z,51.20
2018-07-08T05:26:34.862Z,51.10
2018-07-08T05:31:26.496Z,51.60
2018-07-08T05:36:18.148Z,51.70
2018-07-08T05:41:09.766Z,51.80
2018-07-08T05:46:00.662Z,51.70
2018-07-08T05:50:51.559Z,51.80
2018-07-08T05:55:42.456Z,51.40
2018-07-08T06:00:33.373Z,51.50
2018-07-08T06:05:25.021Z,51.40
2018-07-08T06:10:15.928Z,51.20
2018-07-08T06:15:06.815Z,51.50
2018-07-08T06:19:58.456Z,51.60
2018-07-08T06:24:50.095Z,51.80
2018-07-08T06:29:41.721Z,51.70
2018-07-08T06:34:33.361Z,52.10
2018-07-08T06:39:25.019Z,52.20
2018-07-08T06:44:15.920Z,52.00
2018-07-08T06:49:07.572Z,51.60
2018-07-08T06:53:58.474Z,51.60
2018-07-08T06:58:50.113Z,51.40
2018-07-08T07:03:41.738Z,51.50
2018-07-08T07:08:33.390Z,51.50
2018-07-08T07:13:24.294Z,51.50
2018-07-08T07:18:15.197Z,51.50
2018-07-08T07:23:06.235Z,51.40
2018-07-08T07:27:57.072Z,51.30
2018-07-08T07:32:47.967Z,51.50
2018-07-08T07:37:39.608Z,51.60
2018-07-08T07:42:31.281Z,51.60
2018-07-08T07:47:22.177Z,51.60
2018-07-08T07:52:13.081Z,51.50
2018-07-08T07:57:04.720Z,51.50
2018-07-08T08:01:56.344Z,51.70
2018-07-08T08:06:47.252Z,51.70
2018-07-08T08:11:38.151Z,51.50
2018-07-08T08:16:29.051Z,51.40
2018-07-08T08:21:19.974Z,51.30
2018-07-08T08:26:10.888Z,51.40
2018-07-08T08:31:01.787Z,51.10
2018-07-08T08:35:52.697Z,51.00
2018-07-08T08:40:43.607Z,51.20
2018-07-08T08:45:34.506Z,51.20
2018-07-08T08:50:26.165Z,51.00
2018-07-08T08:55:17.099Z,50.90
2018-07-08T09:00:08.025Z,50.90
2018-07-08T09:04:59.048Z,50.80
2018-07-08T09:09:49.951Z,50.80
2018-07-08T09:14:40.873Z,50.70
2018-07-08T09:19:31.775Z,50.90
2018-07-08T09:24:23.192Z,50.90
2018-07-08T09:29:14.117Z,50.70
2018-07-08T09:34:05.767Z,51.00
2018-07-08T09:38:56.752Z,50.90
2018-07-08T09:43:47.710Z,50.90
2018-07-08T09:48:38.624Z,50.90
2018-07-08T09:53:29.527Z,51.00
2018-07-08T09:58:21.196Z,50.80
2018-07-08T10:03:12.105Z,50.70
2018-07-08T10:08:03.426Z,50.70
2018-07-08T10:12:55.090Z,50.50
2018-07-08T10:17:46.062Z,50.50
2018-07-08T10:22:36.918Z,50.50
2018-07-08T10:27:27.841Z,50.50
2018-07-08T10:32:18.742Z,50.40
2018-07-08T10:37:09.634Z,50.30
2018-07-08T10:42:01.274Z,50.20
2018-07-08T10:46:52.925Z,50.10
2018-07-08T10:51:43.842Z,50.10
2018-07-08T10:56:34.761Z,50.10
2018-07-08T11:01:25.669Z,50.00
2018-07-08T11:06:16.577Z,49.80
2018-07-08T11:11:08.205Z,49.60
2018-07-08T11:15:59.107Z,49.50
2018-07-08T11:20:50.058Z,49.40
2018-07-08T11:25:40.898Z,49.20
2018-07-08T11:30:31.798Z,49.00
2018-07-08T11:35:22.687Z,48.80
2018-07-08T11:40:13.579Z,48.80
2018-07-08T11:45:04.530Z,48.60
2018-07-08T11:49:55.471Z,48.10
2018-07-08T11:54:47.157Z,47.90
2018-07-08T11:59:38.116Z,47.80
2018-07-08T12:04:29.751Z,47.40
2018-07-08T12:09:21.403Z,47.10
2018-07-08T12:14:12.317Z,47.10
2018-07-08T12:19:03.223Z,47.00
2018-07-08T12:23:54.854Z,47.00
2018-07-08T12:28:46.497Z,47.00
2018-07-08T12:33:38.155Z,47.00
2018-07-08T12:38:29.050Z,47.00
2018-07-08T12:43:20.741Z,46.70
2018-07-08T12:48:11.657Z,46.70
2018-07-08T12:53:02.560Z,46.50
2018-07-08T12:57:53.468Z,46.40
2018-07-08T13:02:44.376Z,46.20
2018-07-08T13:07:35.302Z,46.10
2018-07-08T13:12:26.199Z,46.00
2018-07-08T13:17:17.845Z,46.20
2018-07-08T13:22:08.774Z,46.20
2018-07-08T13:26:59.670Z,46.40
2018-07-08T13:31:51.880Z,46.20
2018-07-08T13:36:42.800Z,46.20
2018-07-08T13:41:33.708Z,46.40
2018-07-08T13:46:24.611Z,45.80
2018-07-08T13:51:15.504Z,45.70
2018-07-08T13:56:06.441Z,45.60
2018-07-08T14:00:57.366Z,45.50
2018-07-08T14:05:48.267Z,45.20
2018-07-08T14:10:39.169Z,45.30
2018-07-08T14:15:30.827Z,45.50
2018-07-08T14:20:21.764Z,45.50
2018-07-08T14:25:12.626Z,45.10
2018-07-08T14:30:04.267Z,44.70
2018-07-08T14:34:55.946Z,44.20
2018-07-08T14:39:47.539Z,44.30
2018-07-08T14:44:39.189Z,44.70
2018-07-08T14:49:30.095Z,44.70
2018-07-08T14:54:21.734Z,44.50
2018-07-08T14:59:12.653Z,44.40
2018-07-08T15:04:03.561Z,44.60
2018-07-08T15:08:55.255Z,44.50
2018-07-08T15:13:46.166Z,44.50
2018-07-08T15:18:37.078Z,44.50
2018-07-08T15:23:27.992Z,44.20
2018-07-08T15:28:18.896Z,43.80
2018-07-08T15:33:09.803Z,43.90
2018-07-08T15:38:00.700Z,43.80
2018-07-08T15:42:52.360Z,43.60
2018-07-08T15:47:43.263Z,43.50
2018-07-08T15:52:34.918Z,43.60
2018-07-08T15:57:25.814Z,43.60
2018-07-08T16:02:17.452Z,43.50
2018-07-08T16:07:09.100Z,43.30
2018-07-08T16:12:00.060Z,43.30
2018-07-08T16:16:50.903Z,43.10
2018-07-08T16:21:41.801Z,43.00
2018-07-08T16:26:32.686Z,43.10
2018-07-08T16:31:23.569Z,43.20
2018-07-08T16:36:15.207Z,43.30
2018-07-08T16:41:06.839Z,43.30
2018-07-08T16:45:58.481Z,43.20
2018-07-08T16:50:50.135Z,43.20
2018-07-08T16:55:41.036Z,43.20
2018-07-08T17:00:32.679Z,43.20
2018-07-08T17:05:24.320Z,43.40
2018-07-08T17:10:15.207Z,43.30
2018-07-08T17:15:07.592Z,43.30
2018-07-08T17:19:58.474Z,43.30
2018-07-08T17:24:50.108Z,43.40
2018-07-08T17:29:40.997Z,43.40
2018-07-08T17:34:31.881Z,43.30
2018-07-08T17:39:22.772Z,43.40
2018-07-08T17:44:14.616Z,43.70
2018-07-08T17:49:06.260Z,43.80
2018-07-08T17:53:57.893Z,43.80
2018-07-08T17:58:49.512Z,43.90
2018-07-08T18:03:40.414Z,43.90
2018-07-08T18:08:32.059Z,43.70
2018-07-08T18:13:22.960Z,44.00
2018-07-08T18:18:13.860Z,44.10
2018-07-08T18:23:11.795Z,44.00
2018-07-08T18:28:02.691Z,44.00
2018-07-08T18:32:53.608Z,44.10
2018-07-08T18:37:44.520Z,44.10
2018-07-08T18:42:35.430Z,44.10
2018-07-08T18:47:26.353Z,44.20
2018-07-08T18:52:17.260Z,44.30
2018-07-08T18:57:08.159Z,44.30
2018-07-08T19:01:59.065Z,44.40
2018-07-08T19:06:49.993Z,44.40
2018-07-08T19:11:40.896Z,44.60
2018-07-08T19:16:31.791Z,44.70
2018-07-08T19:21:23.461Z,44.90
2018-07-08T19:26:14.350Z,44.90
2018-07-08T19:31:05.991Z,45.20
2018-07-08T19:35:57.635Z,45.30
2018-07-08T19:40:48.537Z,45.30
2018-07-08T19:45:40.175Z,45.40
2018-07-08T19:50:31.808Z,45.60
2018-07-08T19:55:23.453Z,45.60
2018-07-08T20:00:15.098Z,45.50
2018-07-08T20:05:06.003Z,45.50
2018-07-08T20:09:57.638Z,45.60
2018-07-08T20:14:49.285Z,45.60
2018-07-08T20:19:40.176Z,45.60
2018-07-08T20:24:31.068Z,45.90
2018-07-08T20:29:22.706Z,46.00
2018-07-08T20:34:13.583Z,46.00
2018-07-08T20:39:04.468Z,46.20
2018-07-08T20:43:55.360Z,46.30
2018-07-08T20:48:46.243Z,46.30
2018-07-08T20:53:37.141Z,46.60
2018-07-08T20:58:28.128Z,46.60
2018-07-08T21:03:19.155Z,46.70
2018-07-08T21:08:10.360Z,46.70
2018-07-08T21:13:01.277Z,46.90
2018-07-08T21:17:52.233Z,47.00
2018-07-08T21:22:43.948Z,47.00
2018-07-08T21:27:36.346Z,47.10
2018-07-08T21:32:27.325Z,47.40
2018-07-08T21:37:18.256Z,47.30
2018-07-08T21:42:09.208Z,47.20
2018-07-08T21:47:00.156Z,47.20
2018-07-08T21:51:51.042Z,47.30
2018-07-08T21:56:41.983Z,47.30
2018-07-08T22:01:32.881Z,47.30
2018-07-08T22:06:23.839Z,47.30
2018-07-08T22:11:14.784Z,47.40
2018-07-08T22:16:06.493Z,47.60
2018-07-08T22:20:57.409Z,47.60
2018-07-08T22:25:48.335Z,47.70
2018-07-08T22:30:39.248Z,48.40
2018-07-08T22:35:30.147Z,48.00
2018-07-08T22:40:21.073Z,48.10
2018-07-08T22:45:12.044Z,48.20
2018-07-08T22:50:03.693Z,48.30
2018-07-08T22:54:54.600Z,48.30
2018-07-08T22:59:46.313Z,48.70
2018-07-08T23:04:37.228Z,48.60
2018-07-08T23:09:28.135Z,48.60
2018-07-08T23:14:19.032Z,48.60
2018-07-08T23:19:09.935Z,48.70
2018-07-08T23:24:00.836Z,48.70
2018-07-08T23:28:52.493Z,48.70
2018-07-08T23:33:43.389Z,48.60
2018-07-08T23:38:35.058Z,48.80
2018-07-08T23:43:25.956Z,48.80
2018-07-08T23:48:16.856Z,48.80
2018-07-08T23:53:08.475Z,49.00
2018-07-08T23:58:00.112Z,49.00
